sensor_id;sensor_type;location;lat;lon;timestamp;P1;durP1;ratioP1;P2;durP2;ratioP2
71790;SDS011;59638;52.126;5.434;2024-01-30T00:00:13;6.50;;;5.53;;
71790;SDS011;59638;52.126;5.434;2024-01-30T00:02:40;8.13;;;5.13;;
71790;SDS011;59638;52.126;5.434;2024-01-30T00:05:07;10.85;;;5.47;;
71790;SDS011;59638;52.126;5.434;2024-01-30T00:07:33;7.13;;;4.78;;
71790;SDS011;59638;52.126;5.434;2024-01-30T00:10:00;6.03;;;5.00;;
71790;SDS011;59638;52.126;5.434;2024-01-30T00:12:26;7.03;;;5.60;;
71790;SDS011;59638;52.126;5.434;2024-01-30T00:14:53;8.55;;;4.13;;
71790;SDS011;59638;52.126;5.434;2024-01-30T00:17:20;7.95;;;4.60;;
71790;SDS011;59638;52.126;5.434;2024-01-30T00:19:47;8.30;;;5.32;;
71790;SDS011;59638;52.126;5.434;2024-01-30T00:22:13;6.63;;;5.00;;
71790;SDS011;59638;52.126;5.434;2024-01-30T00:24:40;5.93;;;5.15;;
71790;SDS011;59638;52.126;5.434;2024-01-30T00:27:07;6.57;;;5.03;;
71790;SDS011;59638;52.126;5.434;2024-01-30T00:29:34;8.20;;;4.95;;
71790;SDS011;59638;52.126;5.434;2024-01-30T00:32:00;7.88;;;5.50;;
71790;SDS011;59638;52.126;5.434;2024-01-30T00:34:27;5.53;;;4.30;;
71790;SDS011;59638;52.126;5.434;2024-01-30T00:36:54;5.78;;;4.55;;
71790;SDS011;59638;52.126;5.434;2024-01-30T00:39:20;8.80;;;4.95;;
71790;SDS011;59638;52.126;5.434;2024-01-30T00:41:47;11.95;;;4.63;;
71790;SDS011;59638;52.126;5.434;2024-01-30T00:44:13;7.70;;;4.82;;
71790;SDS011;59638;52.126;5.434;2024-01-30T00:46:40;8.70;;;5.17;;
71790;SDS011;59638;52.126;5.434;2024-01-30T00:49:06;10.82;;;4.68;;
71790;SDS011;59638;52.126;5.434;2024-01-30T00:51:33;7.75;;;4.22;;
71790;SDS011;59638;52.126;5.434;2024-01-30T00:53:59;8.00;;;4.75;;
71790;SDS011;59638;52.126;5.434;2024-01-30T00:56:26;5.05;;;4.10;;
71790;SDS011;59638;52.126;5.434;2024-01-30T00:58:52;6.05;;;4.82;;
71790;SDS011;59638;52.126;5.434;2024-01-30T01:01:19;8.05;;;3.63;;
71790;SDS011;59638;52.126;5.434;2024-01-30T01:03:45;8.88;;;4.70;;
71790;SDS011;59638;52.126;5.434;2024-01-30T01:06:12;6.47;;;4.43;;
71790;SDS011;59638;52.126;5.434;2024-01-30T01:08:38;5.43;;;4.53;;
71790;SDS011;59638;52.126;5.434;2024-01-30T01:11:05;6.03;;;4.10;;
71790;SDS011;59638;52.126;5.434;2024-01-30T01:13:31;6.10;;;4.03;;
71790;SDS011;59638;52.126;5.434;2024-01-30T01:15:58;5.47;;;4.03;;
71790;SDS011;59638;52.126;5.434;2024-01-30T01:18:24;7.65;;;4.32;;
71790;SDS011;59638;52.126;5.434;2024-01-30T01:20:51;7.18;;;4.38;;
71790;SDS011;59638;52.126;5.434;2024-01-30T01:23:17;5.73;;;4.20;;
71790;SDS011;59638;52.126;5.434;2024-01-30T01:25:44;4.85;;;3.67;;
71790;SDS011;59638;52.126;5.434;2024-01-30T01:28:10;8.80;;;3.78;;
71790;SDS011;59638;52.126;5.434;2024-01-30T01:30:37;4.90;;;3.88;;
71790;SDS011;59638;52.126;5.434;2024-01-30T01:33:04;7.53;;;4.20;;
71790;SDS011;59638;52.126;5.434;2024-01-30T01:35:30;6.73;;;4.40;;
71790;SDS011;59638;52.126;5.434;2024-01-30T01:37:57;4.47;;;3.80;;
71790;SDS011;59638;52.126;5.434;2024-01-30T01:40:26;5.07;;;3.92;;
71790;SDS011;59638;52.126;5.434;2024-01-30T01:42:54;4.75;;;3.58;;
71790;SDS011;59638;52.126;5.434;2024-01-30T01:45:21;5.20;;;3.92;;
71790;SDS011;59638;52.126;5.434;2024-01-30T01:47:50;6.90;;;3.83;;
71790;SDS011;59638;52.126;5.434;2024-01-30T01:50:18;7.65;;;4.20;;
71790;SDS011;59638;52.126;5.434;2024-01-30T01:52:49;8.32;;;4.20;;
71790;SDS011;59638;52.126;5.434;2024-01-30T01:55:16;6.07;;;3.67;;
71790;SDS011;59638;52.126;5.434;2024-01-30T01:57:44;5.57;;;3.42;;
71790;SDS011;59638;52.126;5.434;2024-01-30T02:00:11;9.17;;;3.90;;
71790;SDS011;59638;52.126;5.434;2024-01-30T02:02:38;3.50;;;3.20;;
71790;SDS011;59638;52.126;5.434;2024-01-30T02:05:05;4.95;;;3.20;;
71790;SDS011;59638;52.126;5.434;2024-01-30T02:07:32;3.63;;;3.08;;
71790;SDS011;59638;52.126;5.434;2024-01-30T02:09:59;6.18;;;4.05;;
71790;SDS011;59638;52.126;5.434;2024-01-30T02:12:25;4.83;;;3.57;;
71790;SDS011;59638;52.126;5.434;2024-01-30T02:14:52;5.00;;;3.72;;
71790;SDS011;59638;52.126;5.434;2024-01-30T02:17:19;4.57;;;3.63;;
71790;SDS011;59638;52.126;5.434;2024-01-30T02:19:46;3.22;;;2.92;;
71790;SDS011;59638;52.126;5.434;2024-01-30T02:22:13;5.68;;;4.25;;
71790;SDS011;59638;52.126;5.434;2024-01-30T02:24:40;4.03;;;3.40;;
71790;SDS011;59638;52.126;5.434;2024-01-30T02:27:06;4.60;;;3.42;;
71790;SDS011;59638;52.126;5.434;2024-01-30T02:29:33;5.18;;;3.15;;
71790;SDS011;59638;52.126;5.434;2024-01-30T02:31:59;6.05;;;4.05;;
71790;SDS011;59638;52.126;5.434;2024-01-30T02:34:25;5.93;;;3.67;;
71790;SDS011;59638;52.126;5.434;2024-01-30T02:36:52;6.20;;;3.53;;
71790;SDS011;59638;52.126;5.434;2024-01-30T02:39:19;4.80;;;3.65;;
71790;SDS011;59638;52.126;5.434;2024-01-30T02:41:46;4.63;;;3.75;;
71790;SDS011;59638;52.126;5.434;2024-01-30T02:44:12;6.65;;;3.47;;
71790;SDS011;59638;52.126;5.434;2024-01-30T02:46:38;5.97;;;3.47;;
71790;SDS011;59638;52.126;5.434;2024-01-30T02:49:05;5.57;;;4.23;;
71790;SDS011;59638;52.126;5.434;2024-01-30T02:51:32;4.28;;;3.47;;
71790;SDS011;59638;52.126;5.434;2024-01-30T02:53:58;5.93;;;3.58;;
71790;SDS011;59638;52.126;5.434;2024-01-30T02:56:24;5.90;;;4.63;;
71790;SDS011;59638;52.126;5.434;2024-01-30T02:58:51;5.45;;;3.97;;
71790;SDS011;59638;52.126;5.434;2024-01-30T03:01:17;5.77;;;4.07;;
71790;SDS011;59638;52.126;5.434;2024-01-30T03:03:44;6.88;;;4.47;;
71790;SDS011;59638;52.126;5.434;2024-01-30T03:06:11;7.13;;;4.97;;
71790;SDS011;59638;52.126;5.434;2024-01-30T03:08:37;11.52;;;5.47;;
71790;SDS011;59638;52.126;5.434;2024-01-30T03:11:03;8.25;;;5.68;;
71790;SDS011;59638;52.126;5.434;2024-01-30T03:13:30;7.97;;;5.10;;
71790;SDS011;59638;52.126;5.434;2024-01-30T03:15:56;10.13;;;4.85;;
71790;SDS011;59638;52.126;5.434;2024-01-30T03:18:23;7.60;;;4.93;;
71790;SDS011;59638;52.126;5.434;2024-01-30T03:20:49;9.55;;;6.13;;
71790;SDS011;59638;52.126;5.434;2024-01-30T03:23:16;11.05;;;6.57;;
71790;SDS011;59638;52.126;5.434;2024-01-30T03:25:43;11.83;;;6.67;;
71790;SDS011;59638;52.126;5.434;2024-01-30T03:28:09;8.65;;;5.90;;
71790;SDS011;59638;52.126;5.434;2024-01-30T03:30:36;7.97;;;5.88;;
71790;SDS011;59638;52.126;5.434;2024-01-30T03:33:02;12.25;;;4.93;;
71790;SDS011;59638;52.126;5.434;2024-01-30T03:35:29;6.95;;;5.13;;
71790;SDS011;59638;52.126;5.434;2024-01-30T03:37:55;8.97;;;5.13;;
71790;SDS011;59638;52.126;5.434;2024-01-30T03:40:22;9.85;;;4.82;;
71790;SDS011;59638;52.126;5.434;2024-01-30T03:42:48;11.07;;;5.45;;
71790;SDS011;59638;52.126;5.434;2024-01-30T03:45:15;9.60;;;5.00;;
71790;SDS011;59638;52.126;5.434;2024-01-30T03:47:43;6.82;;;4.10;;
71790;SDS011;59638;52.126;5.434;2024-01-30T03:50:10;6.23;;;3.87;;
71790;SDS011;59638;52.126;5.434;2024-01-30T03:52:36;8.07;;;4.15;;
71790;SDS011;59638;52.126;5.434;2024-01-30T03:55:03;8.63;;;4.40;;
71790;SDS011;59638;52.126;5.434;2024-01-30T03:57:29;7.32;;;3.70;;
71790;SDS011;59638;52.126;5.434;2024-01-30T03:59:56;7.07;;;3.70;;
71790;SDS011;59638;52.126;5.434;2024-01-30T04:02:25;6.77;;;4.37;;
71790;SDS011;59638;52.126;5.434;2024-01-30T04:04:51;4.65;;;3.53;;
71790;SDS011;59638;52.126;5.434;2024-01-30T04:07:18;5.40;;;3.22;;
71790;SDS011;59638;52.126;5.434;2024-01-30T04:09:49;4.55;;;3.30;;
71790;SDS011;59638;52.126;5.434;2024-01-30T04:12:15;3.45;;;3.15;;
71790;SDS011;59638;52.126;5.434;2024-01-30T04:14:42;4.10;;;3.00;;
71790;SDS011;59638;52.126;5.434;2024-01-30T04:17:10;6.20;;;3.65;;
71790;SDS011;59638;52.126;5.434;2024-01-30T04:19:39;5.00;;;3.35;;
71790;SDS011;59638;52.126;5.434;2024-01-30T04:22:06;3.60;;;2.72;;
71790;SDS011;59638;52.126;5.434;2024-01-30T04:24:32;6.57;;;2.90;;
71790;SDS011;59638;52.126;5.434;2024-01-30T04:26:59;5.27;;;3.27;;
71790;SDS011;59638;52.126;5.434;2024-01-30T04:29:25;7.20;;;2.83;;
71790;SDS011;59638;52.126;5.434;2024-01-30T04:31:52;3.42;;;2.58;;
71790;SDS011;59638;52.126;5.434;2024-01-30T04:34:18;6.07;;;3.25;;
71790;SDS011;59638;52.126;5.434;2024-01-30T04:36:45;5.63;;;2.80;;
71790;SDS011;59638;52.126;5.434;2024-01-30T04:39:12;5.77;;;3.03;;
71790;SDS011;59638;52.126;5.434;2024-01-30T04:41:39;3.05;;;2.42;;
71790;SDS011;59638;52.126;5.434;2024-01-30T04:44:06;3.70;;;2.78;;
71790;SDS011;59638;52.126;5.434;2024-01-30T04:46:33;5.88;;;2.78;;
71790;SDS011;59638;52.126;5.434;2024-01-30T04:49:00;6.13;;;2.65;;
71790;SDS011;59638;52.126;5.434;2024-01-30T04:51:27;4.57;;;2.90;;
71790;SDS011;59638;52.126;5.434;2024-01-30T04:53:53;4.57;;;2.72;;
71790;SDS011;59638;52.126;5.434;2024-01-30T04:56:20;3.35;;;2.60;;
71790;SDS011;59638;52.126;5.434;2024-01-30T04:58:46;7.28;;;2.90;;
71790;SDS011;59638;52.126;5.434;2024-01-30T05:01:16;7.35;;;3.15;;
71790;SDS011;59638;52.126;5.434;2024-01-30T05:03:43;2.93;;;2.10;;
71790;SDS011;59638;52.126;5.434;2024-01-30T05:06:11;6.93;;;3.17;;
71790;SDS011;59638;52.126;5.434;2024-01-30T05:08:37;6.47;;;2.95;;
71790;SDS011;59638;52.126;5.434;2024-01-30T05:11:05;5.05;;;2.88;;
71790;SDS011;59638;52.126;5.434;2024-01-30T05:13:31;3.72;;;2.33;;
71790;SDS011;59638;52.126;5.434;2024-01-30T05:15:58;6.43;;;2.70;;
71790;SDS011;59638;52.126;5.434;2024-01-30T05:18:24;11.38;;;3.13;;
71790;SDS011;59638;52.126;5.434;2024-01-30T05:20:51;3.92;;;2.90;;
71790;SDS011;59638;52.126;5.434;2024-01-30T05:23:18;6.25;;;2.78;;
71790;SDS011;59638;52.126;5.434;2024-01-30T05:25:44;4.43;;;2.97;;
71790;SDS011;59638;52.126;5.434;2024-01-30T05:28:10;5.00;;;2.00;;
71790;SDS011;59638;52.126;5.434;2024-01-30T05:30:37;3.42;;;2.72;;
71790;SDS011;59638;52.126;5.434;2024-01-30T05:33:03;4.15;;;2.78;;
71790;SDS011;59638;52.126;5.434;2024-01-30T05:35:30;4.03;;;2.50;;
71790;SDS011;59638;52.126;5.434;2024-01-30T05:37:57;4.43;;;2.58;;
71790;SDS011;59638;52.126;5.434;2024-01-30T05:40:23;5.60;;;2.77;;
71790;SDS011;59638;52.126;5.434;2024-01-30T05:42:50;5.90;;;2.97;;
71790;SDS011;59638;52.126;5.434;2024-01-30T05:45:17;3.33;;;2.13;;
71790;SDS011;59638;52.126;5.434;2024-01-30T05:47:43;5.90;;;3.50;;
71790;SDS011;59638;52.126;5.434;2024-01-30T05:50:09;5.55;;;2.70;;
71790;SDS011;59638;52.126;5.434;2024-01-30T05:52:36;5.60;;;2.57;;
71790;SDS011;59638;52.126;5.434;2024-01-30T05:55:03;4.32;;;3.08;;
71790;SDS011;59638;52.126;5.434;2024-01-30T05:57:29;7.63;;;3.08;;
71790;SDS011;59638;52.126;5.434;2024-01-30T05:59:56;3.03;;;2.47;;
71790;SDS011;59638;52.126;5.434;2024-01-30T06:02:22;6.47;;;2.80;;
71790;SDS011;59638;52.126;5.434;2024-01-30T06:04:49;6.43;;;2.60;;
71790;SDS011;59638;52.126;5.434;2024-01-30T06:07:15;4.07;;;2.42;;
71790;SDS011;59638;52.126;5.434;2024-01-30T06:09:43;5.70;;;3.08;;
71790;SDS011;59638;52.126;5.434;2024-01-30T06:12:12;5.68;;;2.95;;
71790;SDS011;59638;52.126;5.434;2024-01-30T06:14:38;5.00;;;2.75;;
71790;SDS011;59638;52.126;5.434;2024-01-30T06:17:05;4.63;;;2.83;;
71790;SDS011;59638;52.126;5.434;2024-01-30T06:19:31;3.55;;;2.40;;
71790;SDS011;59638;52.126;5.434;2024-01-30T06:21:58;6.03;;;2.95;;
71790;SDS011;59638;52.126;5.434;2024-01-30T06:24:25;7.28;;;2.50;;
71790;SDS011;59638;52.126;5.434;2024-01-30T06:26:51;5.18;;;2.90;;
71790;SDS011;59638;52.126;5.434;2024-01-30T06:29:18;3.93;;;2.43;;
71790;SDS011;59638;52.126;5.434;2024-01-30T06:31:45;6.07;;;2.42;;
71790;SDS011;59638;52.126;5.434;2024-01-30T06:34:12;4.07;;;2.92;;
71790;SDS011;59638;52.126;5.434;2024-01-30T06:36:38;5.18;;;2.90;;
71790;SDS011;59638;52.126;5.434;2024-01-30T06:39:05;3.63;;;2.80;;
71790;SDS011;59638;52.126;5.434;2024-01-30T06:41:31;2.67;;;2.37;;
71790;SDS011;59638;52.126;5.434;2024-01-30T06:43:58;6.88;;;2.75;;
71790;SDS011;59638;52.126;5.434;2024-01-30T06:46:25;4.38;;;2.60;;
71790;SDS011;59638;52.126;5.434;2024-01-30T06:48:51;5.15;;;2.88;;
71790;SDS011;59638;52.126;5.434;2024-01-30T06:51:18;4.97;;;2.92;;
71790;SDS011;59638;52.126;5.434;2024-01-30T06:53:44;6.87;;;2.73;;
71790;SDS011;59638;52.126;5.434;2024-01-30T06:56:11;7.10;;;2.40;;
71790;SDS011;59638;52.126;5.434;2024-01-30T06:58:37;3.28;;;2.58;;
71790;SDS011;59638;52.126;5.434;2024-01-30T07:01:04;5.75;;;2.83;;
71790;SDS011;59638;52.126;5.434;2024-01-30T07:03:30;3.70;;;2.92;;
71790;SDS011;59638;52.126;5.434;2024-01-30T07:05:57;3.10;;;2.27;;
71790;SDS011;59638;52.126;5.434;2024-01-30T07:08:23;3.47;;;2.65;;
71790;SDS011;59638;52.126;5.434;2024-01-30T07:10:50;7.03;;;3.33;;
71790;SDS011;59638;52.126;5.434;2024-01-30T07:13:17;4.47;;;3.10;;
71790;SDS011;59638;52.126;5.434;2024-01-30T07:15:43;4.80;;;3.00;;
71790;SDS011;59638;52.126;5.434;2024-01-30T07:18:10;3.07;;;2.10;;
71790;SDS011;59638;52.126;5.434;2024-01-30T07:20:36;5.05;;;2.92;;
71790;SDS011;59638;52.126;5.434;2024-01-30T07:23:03;7.50;;;2.92;;
71790;SDS011;59638;52.126;5.434;2024-01-30T07:25:30;6.38;;;2.80;;
71790;SDS011;59638;52.126;5.434;2024-01-30T07:27:56;5.65;;;2.50;;
71790;SDS011;59638;52.126;5.434;2024-01-30T07:30:23;6.13;;;3.30;;
71790;SDS011;59638;52.126;5.434;2024-01-30T07:32:50;5.20;;;3.38;;
71790;SDS011;59638;52.126;5.434;2024-01-30T07:35:16;3.33;;;2.42;;
71790;SDS011;59638;52.126;5.434;2024-01-30T07:37:43;4.05;;;2.83;;
71790;SDS011;59638;52.126;5.434;2024-01-30T07:40:09;5.00;;;2.67;;
71790;SDS011;59638;52.126;5.434;2024-01-30T07:42:36;4.93;;;3.07;;
71790;SDS011;59638;52.126;5.434;2024-01-30T07:45:02;6.15;;;2.97;;
71790;SDS011;59638;52.126;5.434;2024-01-30T07:47:29;5.38;;;2.42;;
71790;SDS011;59638;52.126;5.434;2024-01-30T07:49:56;5.43;;;3.38;;
71790;SDS011;59638;52.126;5.434;2024-01-30T07:52:22;5.75;;;3.08;;
71790;SDS011;59638;52.126;5.434;2024-01-30T07:54:50;4.67;;;2.50;;
71790;SDS011;59638;52.126;5.434;2024-01-30T07:57:17;5.57;;;2.47;;
71790;SDS011;59638;52.126;5.434;2024-01-30T07:59:44;3.67;;;2.67;;
71790;SDS011;59638;52.126;5.434;2024-01-30T08:02:12;4.43;;;2.72;;
71790;SDS011;59638;52.126;5.434;2024-01-30T08:04:39;3.88;;;1.98;;
71790;SDS011;59638;52.126;5.434;2024-01-30T08:07:06;4.17;;;3.00;;
71790;SDS011;59638;52.126;5.434;2024-01-30T08:09:33;3.80;;;2.55;;
71790;SDS011;59638;52.126;5.434;2024-01-30T08:11:59;7.75;;;2.90;;
71790;SDS011;59638;52.126;5.434;2024-01-30T08:14:26;3.28;;;2.35;;
71790;SDS011;59638;52.126;5.434;2024-01-30T08:16:52;5.65;;;3.10;;
71790;SDS011;59638;52.126;5.434;2024-01-30T08:19:19;4.07;;;2.60;;
71790;SDS011;59638;52.126;5.434;2024-01-30T08:21:45;4.32;;;2.35;;
71790;SDS011;59638;52.126;5.434;2024-01-30T08:24:12;3.42;;;2.25;;
71790;SDS011;59638;52.126;5.434;2024-01-30T08:26:38;4.35;;;2.50;;
71790;SDS011;59638;52.126;5.434;2024-01-30T08:29:05;6.18;;;2.53;;
71790;SDS011;59638;52.126;5.434;2024-01-30T08:31:32;4.47;;;1.93;;
71790;SDS011;59638;52.126;5.434;2024-01-30T08:33:58;6.47;;;2.50;;
71790;SDS011;59638;52.126;5.434;2024-01-30T08:36:25;4.97;;;2.80;;
71790;SDS011;59638;52.126;5.434;2024-01-30T08:38:52;5.05;;;2.78;;
71790;SDS011;59638;52.126;5.434;2024-01-30T08:41:24;4.35;;;2.97;;
71790;SDS011;59638;52.126;5.434;2024-01-30T08:43:51;5.20;;;2.40;;
71790;SDS011;59638;52.126;5.434;2024-01-30T08:46:18;6.10;;;3.10;;
71790;SDS011;59638;52.126;5.434;2024-01-30T08:48:45;8.88;;;2.70;;
71790;SDS011;59638;52.126;5.434;2024-01-30T08:51:13;6.20;;;2.65;;
71790;SDS011;59638;52.126;5.434;2024-01-30T08:53:41;4.10;;;2.55;;
71790;SDS011;59638;52.126;5.434;2024-01-30T08:56:08;5.87;;;2.47;;
71790;SDS011;59638;52.126;5.434;2024-01-30T08:58:34;7.25;;;2.50;;
71790;SDS011;59638;52.126;5.434;2024-01-30T09:01:01;6.18;;;3.03;;
71790;SDS011;59638;52.126;5.434;2024-01-30T09:03:30;8.25;;;3.63;;
71790;SDS011;59638;52.126;5.434;2024-01-30T09:05:56;7.35;;;2.85;;
71790;SDS011;59638;52.126;5.434;2024-01-30T09:08:23;9.60;;;2.57;;
71790;SDS011;59638;52.126;5.434;2024-01-30T09:10:49;3.63;;;1.77;;
71790;SDS011;59638;52.126;5.434;2024-01-30T09:13:16;11.27;;;3.17;;
71790;SDS011;59638;52.126;5.434;2024-01-30T09:15:43;6.55;;;3.28;;
71790;SDS011;59638;52.126;5.434;2024-01-30T09:18:09;5.78;;;2.80;;
71790;SDS011;59638;52.126;5.434;2024-01-30T09:20:36;4.73;;;2.30;;
71790;SDS011;59638;52.126;5.434;2024-01-30T09:23:02;8.13;;;2.67;;
71790;SDS011;59638;52.126;5.434;2024-01-30T09:25:29;6.85;;;2.78;;
71790;SDS011;59638;52.126;5.434;2024-01-30T09:27:55;8.43;;;2.28;;
71790;SDS011;59638;52.126;5.434;2024-01-30T09:30:22;6.18;;;2.67;;
71790;SDS011;59638;52.126;5.434;2024-01-30T09:32:48;6.87;;;2.37;;
71790;SDS011;59638;52.126;5.434;2024-01-30T09:35:15;18.95;;;3.40;;
71790;SDS011;59638;52.126;5.434;2024-01-30T09:37:42;6.20;;;2.10;;
71790;SDS011;59638;52.126;5.434;2024-01-30T09:40:08;6.55;;;2.35;;
71790;SDS011;59638;52.126;5.434;2024-01-30T09:42:35;6.45;;;2.75;;
71790;SDS011;59638;52.126;5.434;2024-01-30T09:45:03;6.00;;;2.33;;
71790;SDS011;59638;52.126;5.434;2024-01-30T09:47:31;7.05;;;2.55;;
71790;SDS011;59638;52.126;5.434;2024-01-30T09:50:07;9.00;;;2.17;;
71790;SDS011;59638;52.126;5.434;2024-01-30T09:52:35;5.22;;;2.90;;
71790;SDS011;59638;52.126;5.434;2024-01-30T09:55:02;9.15;;;3.28;;
71790;SDS011;59638;52.126;5.434;2024-01-30T09:57:29;5.03;;;2.27;;
71790;SDS011;59638;52.126;5.434;2024-01-30T09:59:55;5.40;;;2.83;;
71790;SDS011;59638;52.126;5.434;2024-01-30T10:02:22;5.65;;;3.38;;
71790;SDS011;59638;52.126;5.434;2024-01-30T10:04:49;8.13;;;2.47;;
71790;SDS011;59638;52.126;5.434;2024-01-30T10:07:17;6.43;;;3.10;;
71790;SDS011;59638;52.126;5.434;2024-01-30T10:09:45;5.53;;;2.50;;
71790;SDS011;59638;52.126;5.434;2024-01-30T10:12:12;6.95;;;3.33;;
71790;SDS011;59638;52.126;5.434;2024-01-30T10:14:39;7.10;;;3.00;;
71790;SDS011;59638;52.126;5.434;2024-01-30T10:17:10;4.85;;;1.90;;
71790;SDS011;59638;52.126;5.434;2024-01-30T10:19:49;5.10;;;2.60;;
71790;SDS011;59638;52.126;5.434;2024-01-30T10:22:17;3.80;;;2.60;;
71790;SDS011;59638;52.126;5.434;2024-01-30T10:24:44;5.82;;;2.33;;
71790;SDS011;59638;52.126;5.434;2024-01-30T10:27:11;5.70;;;2.42;;
71790;SDS011;59638;52.126;5.434;2024-01-30T10:29:38;10.45;;;3.20;;
71790;SDS011;59638;52.126;5.434;2024-01-30T10:32:04;4.40;;;2.35;;
71790;SDS011;59638;52.126;5.434;2024-01-30T10:34:32;8.50;;;2.60;;
71790;SDS011;59638;52.126;5.434;2024-01-30T10:37:03;6.10;;;2.40;;
71790;SDS011;59638;52.126;5.434;2024-01-30T10:39:35;5.95;;;2.90;;
71790;SDS011;59638;52.126;5.434;2024-01-30T10:42:04;6.80;;;3.00;;
71790;SDS011;59638;52.126;5.434;2024-01-30T10:47:11;4.20;;;2.93;;
71790;SDS011;59638;52.126;5.434;2024-01-30T10:49:41;5.10;;;2.80;;
71790;SDS011;59638;52.126;5.434;2024-01-30T10:52:13;4.10;;;2.38;;
71790;SDS011;59638;52.126;5.434;2024-01-30T10:54:41;4.72;;;2.45;;
71790;SDS011;59638;52.126;5.434;2024-01-30T10:57:11;5.28;;;3.00;;
71790;SDS011;59638;52.126;5.434;2024-01-30T10:59:40;4.90;;;1.67;;
71790;SDS011;59638;52.126;5.434;2024-01-30T11:02:07;4.45;;;2.28;;
71790;SDS011;59638;52.126;5.434;2024-01-30T11:04:40;4.47;;;2.40;;
71790;SDS011;59638;52.126;5.434;2024-01-30T11:07:14;3.70;;;1.77;;
71790;SDS011;59638;52.126;5.434;2024-01-30T11:09:48;7.63;;;2.15;;
71790;SDS011;59638;52.126;5.434;2024-01-30T11:12:22;3.13;;;1.93;;
71790;SDS011;59638;52.126;5.434;2024-01-30T11:15:01;5.22;;;1.90;;
71790;SDS011;59638;52.126;5.434;2024-01-30T11:17:49;3.38;;;2.03;;
71790;SDS011;59638;52.126;5.434;2024-01-30T11:20:27;6.68;;;1.70;;
71790;SDS011;59638;52.126;5.434;2024-01-30T11:22:58;6.57;;;2.58;;
71790;SDS011;59638;52.126;5.434;2024-01-30T11:25:25;3.57;;;1.27;;
71790;SDS011;59638;52.126;5.434;2024-01-30T11:27:55;2.38;;;1.52;;
71790;SDS011;59638;52.126;5.434;2024-01-30T11:30:26;3.83;;;1.83;;
71790;SDS011;59638;52.126;5.434;2024-01-30T11:35:40;2.55;;;0.80;;
71790;SDS011;59638;52.126;5.434;2024-01-30T11:38:09;2.80;;;1.30;;
71790;SDS011;59638;52.126;5.434;2024-01-30T11:40:40;4.07;;;0.73;;
71790;SDS011;59638;52.126;5.434;2024-01-30T11:43:08;2.55;;;0.47;;
71790;SDS011;59638;52.126;5.434;2024-01-30T11:45:35;0.82;;;0.38;;
71790;SDS011;59638;52.126;5.434;2024-01-30T11:48:03;5.70;;;0.95;;
71790;SDS011;59638;52.126;5.434;2024-01-30T11:50:32;3.90;;;0.50;;
71790;SDS011;59638;52.126;5.434;2024-01-30T11:53:00;1.45;;;0.35;;
71790;SDS011;59638;52.126;5.434;2024-01-30T11:55:28;0.77;;;0.22;;
71790;SDS011;59638;52.126;5.434;2024-01-30T11:58:00;2.55;;;0.30;;
71790;SDS011;59638;52.126;5.434;2024-01-30T12:00:26;4.55;;;0.50;;
71790;SDS011;59638;52.126;5.434;2024-01-30T12:02:53;2.53;;;0.30;;
71790;SDS011;59638;52.126;5.434;2024-01-30T12:05:27;1.70;;;0.30;;
71790;SDS011;59638;52.126;5.434;2024-01-30T12:07:54;0.70;;;0.10;;
71790;SDS011;59638;52.126;5.434;2024-01-30T12:10:21;1.45;;;0.20;;
71790;SDS011;59638;52.126;5.434;2024-01-30T12:12:49;2.20;;;0.32;;
71790;SDS011;59638;52.126;5.434;2024-01-30T12:15:16;1.20;;;0.20;;
71790;SDS011;59638;52.126;5.434;2024-01-30T12:17:44;0.57;;;0.10;;
71790;SDS011;59638;52.126;5.434;2024-01-30T12:20:15;1.02;;;0.20;;
71790;SDS011;59638;52.126;5.434;2024-01-30T12:22:45;4.05;;;0.40;;
71790;SDS011;59638;52.126;5.434;2024-01-30T12:25:17;1.00;;;0.10;;
71790;SDS011;59638;52.126;5.434;2024-01-30T12:27:47;2.07;;;0.30;;
71790;SDS011;59638;52.126;5.434;2024-01-30T12:30:19;0.82;;;0.28;;
71790;SDS011;59638;52.126;5.434;2024-01-30T12:32:49;0.60;;;0.10;;
71790;SDS011;59638;52.126;5.434;2024-01-30T12:35:18;2.00;;;0.30;;
71790;SDS011;59638;52.126;5.434;2024-01-30T12:37:47;0.88;;;0.32;;
71790;SDS011;59638;52.126;5.434;2024-01-30T12:40:15;1.97;;;0.60;;
71790;SDS011;59638;52.126;5.434;2024-01-30T12:42:42;0.88;;;0.28;;
71790;SDS011;59638;52.126;5.434;2024-01-30T12:45:13;1.35;;;0.35;;
71790;SDS011;59638;52.126;5.434;2024-01-30T12:47:41;2.75;;;0.40;;
71790;SDS011;59638;52.126;5.434;2024-01-30T12:50:08;3.42;;;0.20;;
71790;SDS011;59638;52.126;5.434;2024-01-30T12:52:35;0.40;;;0.17;;
71790;SDS011;59638;52.126;5.434;2024-01-30T12:55:01;3.03;;;0.20;;
71790;SDS011;59638;52.126;5.434;2024-01-30T12:57:30;1.42;;;0.20;;
71790;SDS011;59638;52.126;5.434;2024-01-30T12:59:56;3.17;;;0.20;;
71790;SDS011;59638;52.126;5.434;2024-01-30T13:02:23;0.88;;;0.30;;
71790;SDS011;59638;52.126;5.434;2024-01-30T13:04:50;1.40;;;0.20;;
71790;SDS011;59638;52.126;5.434;2024-01-30T13:07:17;1.30;;;0.20;;
71790;SDS011;59638;52.126;5.434;2024-01-30T13:09:43;4.35;;;0.20;;
71790;SDS011;59638;52.126;5.434;2024-01-30T13:12:10;0.20;;;0.10;;
71790;SDS011;59638;52.126;5.434;2024-01-30T13:14:36;1.80;;;0.20;;
71790;SDS011;59638;52.126;5.434;2024-01-30T13:17:03;1.77;;;0.23;;
71790;SDS011;59638;52.126;5.434;2024-01-30T13:19:30;1.55;;;0.15;;
71790;SDS011;59638;52.126;5.434;2024-01-30T13:21:57;0.50;;;0.10;;
71790;SDS011;59638;52.126;5.434;2024-01-30T13:24:23;1.05;;;0.35;;
71790;SDS011;59638;52.126;5.434;2024-01-30T13:26:50;6.50;;;1.33;;
71790;SDS011;59638;52.126;5.434;2024-01-30T13:29:16;0.60;;;0.40;;
71790;SDS011;59638;52.126;5.434;2024-01-30T13:31:43;3.85;;;0.10;;
71790;SDS011;59638;52.126;5.434;2024-01-30T13:34:10;1.80;;;0.30;;
71790;SDS011;59638;52.126;5.434;2024-01-30T13:36:37;1.30;;;0.10;;
71790;SDS011;59638;52.126;5.434;2024-01-30T13:39:04;2.20;;;0.20;;
71790;SDS011;59638;52.126;5.434;2024-01-30T13:41:34;1.53;;;0.10;;
71790;SDS011;59638;52.126;5.434;2024-01-30T13:44:01;2.00;;;0.13;;
71790;SDS011;59638;52.126;5.434;2024-01-30T13:46:29;1.30;;;0.30;;
71790;SDS011;59638;52.126;5.434;2024-01-30T13:48:57;1.30;;;0.10;;
71790;SDS011;59638;52.126;5.434;2024-01-30T13:51:23;1.27;;;0.10;;
71790;SDS011;59638;52.126;5.434;2024-01-30T13:53:50;0.30;;;0.00;;
71790;SDS011;59638;52.126;5.434;2024-01-30T13:56:16;0.95;;;0.55;;
71790;SDS011;59638;52.126;5.434;2024-01-30T13:58:43;1.25;;;0.10;;
71790;SDS011;59638;52.126;5.434;2024-01-30T14:01:09;1.35;;;0.10;;
71790;SDS011;59638;52.126;5.434;2024-01-30T14:03:36;1.05;;;0.10;;
71790;SDS011;59638;52.126;5.434;2024-01-30T14:06:02;0.67;;;0.10;;
71790;SDS011;59638;52.126;5.434;2024-01-30T14:08:29;1.83;;;0.20;;
71790;SDS011;59638;52.126;5.434;2024-01-30T14:10:56;0.17;;;0.03;;
71790;SDS011;59638;52.126;5.434;2024-01-30T14:13:22;1.70;;;0.13;;
71790;SDS011;59638;52.126;5.434;2024-01-30T14:15:51;0.00;;;0.00;;
71790;SDS011;59638;52.126;5.434;2024-01-30T14:18:18;6.80;;;0.30;;
71790;SDS011;59638;52.126;5.434;2024-01-30T14:20:45;1.77;;;0.17;;
71790;SDS011;59638;52.126;5.434;2024-01-30T14:23:11;2.42;;;0.10;;
71790;SDS011;59638;52.126;5.434;2024-01-30T14:25:37;2.25;;;0.20;;
71790;SDS011;59638;52.126;5.434;2024-01-30T14:28:04;1.48;;;0.10;;
71790;SDS011;59638;52.126;5.434;2024-01-30T14:30:33;1.90;;;0.20;;
71790;SDS011;59638;52.126;5.434;2024-01-30T14:32:59;1.75;;;0.10;;
71790;SDS011;59638;52.126;5.434;2024-01-30T14:35:26;0.63;;;0.20;;
71790;SDS011;59638;52.126;5.434;2024-01-30T14:37:52;2.65;;;0.25;;
71790;SDS011;59638;52.126;5.434;2024-01-30T14:40:19;0.60;;;0.20;;
71790;SDS011;59638;52.126;5.434;2024-01-30T14:42:46;6.80;;;1.70;;
71790;SDS011;59638;52.126;5.434;2024-01-30T14:45:12;2.05;;;0.10;;
71790;SDS011;59638;52.126;5.434;2024-01-30T14:47:39;2.15;;;0.10;;
71790;SDS011;59638;52.126;5.434;2024-01-30T14:50:07;1.77;;;0.20;;
71790;SDS011;59638;52.126;5.434;2024-01-30T14:52:35;1.33;;;0.22;;